sensor_id;sensor_type;location;lat;lon;timestamp;temperature;humidity
38333;DHT22;25748;46.670;14.272;2023-07-13T00:00:29;19.50;75.30
38333;DHT22;25748;46.670;14.272;2023-07-13T00:02:56;19.50;75.60
38333;DHT22;25748;46.670;14.272;2023-07-13T00:05:22;19.50;75.50
38333;DHT22;25748;46.670;14.272;2023-07-13T00:07:48;19.50;75.30
38333;DHT22;25748;46.670;14.272;2023-07-13T00:10:14;19.50;75.40
38333;DHT22;25748;46.670;14.272;2023-07-13T00:12:40;19.60;75.40
38333;DHT22;25748;46.670;14.272;2023-07-13T00:15:12;19.60;75.60
38333;DHT22;25748;46.670;14.272;2023-07-13T00:17:38;19.60;76.70
38333;DHT22;25748;46.670;14.272;2023-07-13T00:20:05;19.70;78.10
38333;DHT22;25748;46.670;14.272;2023-07-13T00:22:32;19.60;78.90
38333;DHT22;25748;46.670;14.272;2023-07-13T00:24:58;19.50;78.50
38333;DHT22;25748;46.670;14.272;2023-07-13T00:27:24;19.40;79.30
38333;DHT22;25748;46.670;14.272;2023-07-13T00:29:52;19.40;80.50
38333;DHT22;25748;46.670;14.272;2023-07-13T00:32:18;19.30;81.30
38333;DHT22;25748;46.670;14.272;2023-07-13T00:34:44;19.30;82.20
38333;DHT22;25748;46.670;14.272;2023-07-13T00:37:09;19.20;82.80
38333;DHT22;25748;46.670;14.272;2023-07-13T00:39:38;19.20;82.60
38333;DHT22;25748;46.670;14.272;2023-07-13T00:42:05;19.20;79.40
38333;DHT22;25748;46.670;14.272;2023-07-13T00:44:31;19.00;82.20
38333;DHT22;25748;46.670;14.272;2023-07-13T00:46:56;18.50;84.70
38333;DHT22;25748;46.670;14.272;2023-07-13T00:49:26;17.40;92.00
38333;DHT22;25748;46.670;14.272;2023-07-13T00:51:57;17.20;94.60
38333;DHT22;25748;46.670;14.272;2023-07-13T00:54:30;17.20;96.10
38333;DHT22;25748;46.670;14.272;2023-07-13T00:57:01;17.10;96.90
38333;DHT22;25748;46.670;14.272;2023-07-13T00:59:28;17.00;97.20
38333;DHT22;25748;46.670;14.272;2023-07-13T01:01:54;16.90;97.50
38333;DHT22;25748;46.670;14.272;2023-07-13T01:04:20;16.80;97.80
38333;DHT22;25748;46.670;14.272;2023-07-13T01:06:46;16.80;98.00
38333;DHT22;25748;46.670;14.272;2023-07-13T01:09:13;16.80;98.20
38333;DHT22;25748;46.670;14.272;2023-07-13T01:11:40;16.70;98.40
38333;DHT22;25748;46.670;14.272;2023-07-13T01:14:06;16.70;98.40
38333;DHT22;25748;46.670;14.272;2023-07-13T01:16:34;16.70;98.60
38333;DHT22;25748;46.670;14.272;2023-07-13T01:19:01;16.60;98.50
38333;DHT22;25748;46.670;14.272;2023-07-13T01:21:28;16.60;98.60
38333;DHT22;25748;46.670;14.272;2023-07-13T01:23:54;16.60;98.70
38333;DHT22;25748;46.670;14.272;2023-07-13T01:26:21;16.70;98.90
38333;DHT22;25748;46.670;14.272;2023-07-13T01:28:46;16.80;99.00
38333;DHT22;25748;46.670;14.272;2023-07-13T01:31:12;16.70;99.10
38333;DHT22;25748;46.670;14.272;2023-07-13T01:33:41;16.70;99.10
38333;DHT22;25748;46.670;14.272;2023-07-13T01:36:08;16.70;99.20
38333;DHT22;25748;46.670;14.272;2023-07-13T01:38:34;16.70;99.30
38333;DHT22;25748;46.670;14.272;2023-07-13T01:41:00;16.70;99.30
38333;DHT22;25748;46.670;14.272;2023-07-13T01:43:26;16.70;99.40
38333;DHT22;25748;46.670;14.272;2023-07-13T01:45:52;16.70;99.40
38333;DHT22;25748;46.670;14.272;2023-07-13T01:48:19;16.80;99.50
38333;DHT22;25748;46.670;14.272;2023-07-13T01:50:45;16.80;99.60
38333;DHT22;25748;46.670;14.272;2023-07-13T01:53:12;16.80;99.60
38333;DHT22;25748;46.670;14.272;2023-07-13T01:55:38;16.70;99.60
38333;DHT22;25748;46.670;14.272;2023-07-13T01:58:04;16.70;99.70
38333;DHT22;25748;46.670;14.272;2023-07-13T02:00:31;16.70;99.70
38333;DHT22;25748;46.670;14.272;2023-07-13T02:02:58;16.70;99.70
38333;DHT22;25748;46.670;14.272;2023-07-13T02:05:23;16.80;99.80
38333;DHT22;25748;46.670;14.272;2023-07-13T02:07:49;16.80;99.80
38333;DHT22;25748;46.670;14.272;2023-07-13T02:10:15;16.80;99.90
38333;DHT22;25748;46.670;14.272;2023-07-13T02:12:42;16.90;99.90
38333;DHT22;25748;46.670;14.272;2023-07-13T02:15:09;17.00;99.90
38333;DHT22;25748;46.670;14.272;2023-07-13T02:17:35;17.00;99.90
38333;DHT22;25748;46.670;14.272;2023-07-13T02:20:03;17.00;99.90
38333;DHT22;25748;46.670;14.272;2023-07-13T02:22:30;17.00;99.90
38333;DHT22;25748;46.670;14.272;2023-07-13T02:24:55;17.00;99.90
38333;DHT22;25748;46.670;14.272;2023-07-13T02:27:21;17.00;99.90
38333;DHT22;25748;46.670;14.272;2023-07-13T02:29:47;17.00;99.90
38333;DHT22;25748;46.670;14.272;2023-07-13T02:32:13;17.00;99.90
38333;DHT22;25748;46.670;14.272;2023-07-13T02:34:40;17.00;99.90
38333;DHT22;25748;46.670;14.272;2023-07-13T02:37:06;17.10;99.90
38333;DHT22;25748;46.670;14.272;2023-07-13T02:39:31;17.20;99.90
38333;DHT22;25748;46.670;14.272;2023-07-13T02:41:59;17.20;99.90
38333;DHT22;25748;46.670;14.272;2023-07-13T02:44:25;17.20;99.90
38333;DHT22;25748;46.670;14.272;2023-07-13T02:46:51;17.20;99.90
38333;DHT22;25748;46.670;14.272;2023-07-13T02:49:17;17.10;99.90
38333;DHT22;25748;46.670;14.272;2023-07-13T02:51:43;16.90;99.90
38333;DHT22;25748;46.670;14.272;2023-07-13T02:54:09;16.90;99.90
38333;DHT22;25748;46.670;14.272;2023-07-13T02:56:35;16.90;99.90
38333;DHT22;25748;46.670;14.272;2023-07-13T02:59:01;17.00;99.90
38333;DHT22;25748;46.670;14.272;2023-07-13T03:01:28;16.80;99.90
38333;DHT22;25748;46.670;14.272;2023-07-13T03:03:54;16.70;99.90
38333;DHT22;25748;46.670;14.272;2023-07-13T03:06:20;16.70;99.90
38333;DHT22;25748;46.670;14.272;2023-07-13T03:08:47;16.70;99.80
38333;DHT22;25748;46.670;14.272;2023-07-13T03:11:18;16.70;99.80
38333;DHT22;25748;46.670;14.272;2023-07-13T03:13:44;16.80;99.90
38333;DHT22;25748;46.670;14.272;2023-07-13T03:16:10;16.90;99.90
38333;DHT22;25748;46.670;14.272;2023-07-13T03:18:37;16.90;99.90
38333;DHT22;25748;46.670;14.272;2023-07-13T03:21:03;16.90;99.90
38333;DHT22;25748;46.670;14.272;2023-07-13T03:23:30;17.00;99.90
38333;DHT22;25748;46.670;14.272;2023-07-13T03:26:09;17.00;99.90
38333;DHT22;25748;46.670;14.272;2023-07-13T03:28:37;17.00;99.90
38333;DHT22;25748;46.670;14.272;2023-07-13T03:31:05;17.00;99.90
38333;DHT22;25748;46.670;14.272;2023-07-13T03:33:32;16.90;99.90
38333;DHT22;25748;46.670;14.272;2023-07-13T03:35:58;17.00;99.90
38333;DHT22;25748;46.670;14.272;2023-07-13T03:38:23;17.00;99.90
38333;DHT22;25748;46.670;14.272;2023-07-13T03:40:49;17.00;99.90
38333;DHT22;25748;46.670;14.272;2023-07-13T03:43:15;17.10;99.90
38333;DHT22;25748;46.670;14.272;2023-07-13T03:45:41;17.00;99.90
38333;DHT22;25748;46.670;14.272;2023-07-13T03:48:06;17.10;99.90
38333;DHT22;25748;46.670;14.272;2023-07-13T03:50:32;17.10;99.90
38333;DHT22;25748;46.670;14.272;2023-07-13T03:52:59;17.20;99.90
38333;DHT22;25748;46.670;14.272;2023-07-13T03:55:25;17.20;99.90
38333;DHT22;25748;46.670;14.272;2023-07-13T03:57:59;17.10;99.90
38333;DHT22;25748;46.670;14.272;2023-07-13T04:00:25;17.10;99.90
38333;DHT22;25748;46.670;14.272;2023-07-13T04:02:51;17.10;99.90
38333;DHT22;25748;46.670;14.272;2023-07-13T04:05:17;17.10;99.90
38333;DHT22;25748;46.670;14.272;2023-07-13T04:07:43;17.10;99.90
38333;DHT22;25748;46.670;14.272;2023-07-13T04:10:09;17.00;99.70
38333;DHT22;25748;46.670;14.272;2023-07-13T04:12:39;16.90;99.30
38333;DHT22;25748;46.670;14.272;2023-07-13T04:15:05;16.90;99.30
38333;DHT22;25748;46.670;14.272;2023-07-13T04:17:32;16.80;99.00
38333;DHT22;25748;46.670;14.272;2023-07-13T04:19:58;16.90;99.40
38333;DHT22;25748;46.670;14.272;2023-07-13T04:22:23;17.10;99.70
38333;DHT22;25748;46.670;14.272;2023-07-13T04:24:50;17.00;99.60
38333;DHT22;25748;46.670;14.272;2023-07-13T04:27:16;17.00;99.30
38333;DHT22;25748;46.670;14.272;2023-07-13T04:29:42;17.00;99.60
38333;DHT22;25748;46.670;14.272;2023-07-13T04:32:09;17.10;99.60
38333;DHT22;25748;46.670;14.272;2023-07-13T04:34:36;17.00;99.40
38333;DHT22;25748;46.670;14.272;2023-07-13T04:37:01;17.00;99.40
38333;DHT22;25748;46.670;14.272;2023-07-13T04:39:27;16.90;99.20
38333;DHT22;25748;46.670;14.272;2023-07-13T04:41:53;17.00;99.30
38333;DHT22;25748;46.670;14.272;2023-07-13T04:44:18;16.90;99.20
38333;DHT22;25748;46.670;14.272;2023-07-13T04:46:44;17.00;99.10
38333;DHT22;25748;46.670;14.272;2023-07-13T04:49:09;16.90;98.90
38333;DHT22;25748;46.670;14.272;2023-07-13T04:51:35;17.10;99.40
38333;DHT22;25748;46.670;14.272;2023-07-13T04:54:01;17.30;99.50
38333;DHT22;25748;46.670;14.272;2023-07-13T04:56:26;17.40;99.70
38333;DHT22;25748;46.670;14.272;2023-07-13T04:58:52;17.60;99.90
38333;DHT22;25748;46.670;14.272;2023-07-13T05:01:18;17.80;99.90
38333;DHT22;25748;46.670;14.272;2023-07-13T05:03:43;17.90;99.80
38333;DHT22;25748;46.670;14.272;2023-07-13T05:06:35;18.10;99.90
38333;DHT22;25748;46.670;14.272;2023-07-13T05:09:06;18.40;99.90
38333;DHT22;25748;46.670;14.272;2023-07-13T05:11:33;18.60;99.90
38333;DHT22;25748;46.670;14.272;2023-07-13T05:13:59;18.50;99.90
38333;DHT22;25748;46.670;14.272;2023-07-13T05:16:27;18.30;98.80
38333;DHT22;25748;46.670;14.272;2023-07-13T05:18:53;18.40;99.00
38333;DHT22;25748;46.670;14.272;2023-07-13T05:21:19;18.70;99.70
38333;DHT22;25748;46.670;14.272;2023-07-13T05:23:45;18.80;99.60
38333;DHT22;25748;46.670;14.272;2023-07-13T05:26:11;18.80;99.40
38333;DHT22;25748;46.670;14.272;2023-07-13T05:28:37;18.90;99.60
38333;DHT22;25748;46.670;14.272;2023-07-13T05:31:04;19.00;99.90
38333;DHT22;25748;46.670;14.272;2023-07-13T05:33:30;19.10;99.70
38333;DHT22;25748;46.670;14.272;2023-07-13T05:35:56;19.00;98.50
38333;DHT22;25748;46.670;14.272;2023-07-13T05:38:22;19.10;98.50
38333;DHT22;25748;46.670;14.272;2023-07-13T05:40:48;19.00;97.20
38333;DHT22;25748;46.670;14.272;2023-07-13T05:43:13;19.20;97.60
38333;DHT22;25748;46.670;14.272;2023-07-13T05:45:39;19.10;96.90
38333;DHT22;25748;46.670;14.272;2023-07-13T05:48:05;19.40;98.40
38333;DHT22;25748;46.670;14.272;2023-07-13T05:50:31;19.20;95.40
38333;DHT22;25748;46.670;14.272;2023-07-13T05:52:57;19.30;96.40
38333;DHT22;25748;46.670;14.272;2023-07-13T05:55:23;19.40;96.40
38333;DHT22;25748;46.670;14.272;2023-07-13T05:57:48;19.20;95.20
38333;DHT22;25748;46.670;14.272;2023-07-13T06:00:15;19.50;96.60
38333;DHT22;25748;46.670;14.272;2023-07-13T06:02:41;19.30;94.80
38333;DHT22;25748;46.670;14.272;2023-07-13T06:05:07;19.50;95.80
38333;DHT22;25748;46.670;14.272;2023-07-13T06:07:33;19.30;93.60
38333;DHT22;25748;46.670;14.272;2023-07-13T06:09:58;19.40;94.80
38333;DHT22;25748;46.670;14.272;2023-07-13T06:12:25;19.20;92.40
38333;DHT22;25748;46.670;14.272;2023-07-13T06:14:50;19.30;93.60
38333;DHT22;25748;46.670;14.272;2023-07-13T06:17:16;19.30;92.50
38333;DHT22;25748;46.670;14.272;2023-07-13T06:19:42;19.40;94.30
38333;DHT22;25748;46.670;14.272;2023-07-13T06:22:08;19.30;92.20
38333;DHT22;25748;46.670;14.272;2023-07-13T06:24:33;19.30;92.10
38333;DHT22;25748;46.670;14.272;2023-07-13T06:26:59;19.50;93.60
38333;DHT22;25748;46.670;14.272;2023-07-13T06:29:26;19.50;93.40
38333;DHT22;25748;46.670;14.272;2023-07-13T06:31:52;19.50;92.80
38333;DHT22;25748;46.670;14.272;2023-07-13T06:34:18;19.70;93.40
38333;DHT22;25748;46.670;14.272;2023-07-13T06:36:44;19.60;92.50
38333;DHT22;25748;46.670;14.272;2023-07-13T06:39:10;19.70;93.30
38333;DHT22;25748;46.670;14.272;2023-07-13T06:41:35;19.60;92.60
38333;DHT22;25748;46.670;14.272;2023-07-13T06:44:01;19.80;93.80
38333;DHT22;25748;46.670;14.272;2023-07-13T06:46:28;20.00;95.10
38333;DHT22;25748;46.670;14.272;2023-07-13T06:48:55;20.10;95.60
38333;DHT22;25748;46.670;14.272;2023-07-13T06:51:21;20.10;93.50
38333;DHT22;25748;46.670;14.272;2023-07-13T06:53:46;20.20;94.70
38333;DHT22;25748;46.670;14.272;2023-07-13T06:56:12;20.10;93.60
38333;DHT22;25748;46.670;14.272;2023-07-13T06:58:38;20.30;95.30
38333;DHT22;25748;46.670;14.272;2023-07-13T07:01:05;20.20;93.00
38333;DHT22;25748;46.670;14.272;2023-07-13T07:03:30;20.20;92.40
38333;DHT22;25748;46.670;14.272;2023-07-13T07:06:18;20.20;92.50
38333;DHT22;25748;46.670;14.272;2023-07-13T07:08:43;20.10;90.80
38333;DHT22;25748;46.670;14.272;2023-07-13T07:11:16;20.10;92.10
38333;DHT22;25748;46.670;14.272;2023-07-13T07:13:42;20.30;93.40
38333;DHT22;25748;46.670;14.272;2023-07-13T07:16:07;20.50;93.60
38333;DHT22;25748;46.670;14.272;2023-07-13T07:18:34;20.60;93.60
38333;DHT22;25748;46.670;14.272;2023-07-13T07:21:00;20.80;93.70
38333;DHT22;25748;46.670;14.272;2023-07-13T07:23:26;20.90;94.10
38333;DHT22;25748;46.670;14.272;2023-07-13T07:25:51;21.00;94.30
38333;DHT22;25748;46.670;14.272;2023-07-13T07:28:18;21.00;92.80
38333;DHT22;25748;46.670;14.272;2023-07-13T07:30:48;21.00;93.70
38333;DHT22;25748;46.670;14.272;2023-07-13T07:33:14;20.90;92.40
38333;DHT22;25748;46.670;14.272;2023-07-13T07:35:40;21.00;93.50
38333;DHT22;25748;46.670;14.272;2023-07-13T07:38:06;21.10;93.10
38333;DHT22;25748;46.670;14.272;2023-07-13T07:40:37;21.00;91.80
38333;DHT22;25748;46.670;14.272;2023-07-13T07:43:03;20.80;90.70
38333;DHT22;25748;46.670;14.272;2023-07-13T07:45:29;20.90;91.20
38333;DHT22;25748;46.670;14.272;2023-07-13T07:47:54;21.00;92.20
38333;DHT22;25748;46.670;14.272;2023-07-13T07:50:27;21.50;92.40
38333;DHT22;25748;46.670;14.272;2023-07-13T07:52:52;21.60;92.20
38333;DHT22;25748;46.670;14.272;2023-07-13T07:55:18;21.30;87.10
38333;DHT22;25748;46.670;14.272;2023-07-13T07:57:44;21.30;88.70
38333;DHT22;25748;46.670;14.272;2023-07-13T08:00:10;21.40;91.50
38333;DHT22;25748;46.670;14.272;2023-07-13T08:02:36;21.60;90.70
38333;DHT22;25748;46.670;14.272;2023-07-13T08:05:02;21.60;91.80
38333;DHT22;25748;46.670;14.272;2023-07-13T08:07:27;21.40;88.80
38333;DHT22;25748;46.670;14.272;2023-07-13T08:09:53;21.00;87.80
38333;DHT22;25748;46.670;14.272;2023-07-13T08:12:19;20.90;88.30
38333;DHT22;25748;46.670;14.272;2023-07-13T08:14:49;20.90;90.10
38333;DHT22;25748;46.670;14.272;2023-07-13T08:17:22;20.70;88.40
38333;DHT22;25748;46.670;14.272;2023-07-13T08:19:47;20.80;90.20
38333;DHT22;25748;46.670;14.272;2023-07-13T08:22:13;20.60;88.30
38333;DHT22;25748;46.670;14.272;2023-07-13T08:24:39;20.70;90.50
38333;DHT22;25748;46.670;14.272;2023-07-13T08:27:04;20.60;88.70
38333;DHT22;25748;46.670;14.272;2023-07-13T08:29:30;20.50;90.20
38333;DHT22;25748;46.670;14.272;2023-07-13T08:31:59;20.50;89.30
38333;DHT22;25748;46.670;14.272;2023-07-13T08:34:25;20.50;88.30
38333;DHT22;25748;46.670;14.272;2023-07-13T08:36:50;20.50;90.10
38333;DHT22;25748;46.670;14.272;2023-07-13T08:39:16;20.80;91.40
38333;DHT22;25748;46.670;14.272;2023-07-13T08:41:49;20.80;90.00
38333;DHT22;25748;46.670;14.272;2023-07-13T08:44:37;20.90;90.70
38333;DHT22;25748;46.670;14.272;2023-07-13T08:47:04;21.00;90.60
38333;DHT22;25748;46.670;14.272;2023-07-13T08:49:33;21.30;91.70
38333;DHT22;25748;46.670;14.272;2023-07-13T08:52:09;21.00;87.70
38333;DHT22;25748;46.670;14.272;2023-07-13T08:54:39;20.90;88.40
38333;DHT22;25748;46.670;14.272;2023-07-13T08:57:31;21.10;90.30
38333;DHT22;25748;46.670;14.272;2023-07-13T08:59:57;21.20;90.00
38333;DHT22;25748;46.670;14.272;2023-07-13T09:02:37;21.40;90.00
38333;DHT22;25748;46.670;14.272;2023-07-13T09:05:18;21.30;89.40
38333;DHT22;25748;46.670;14.272;2023-07-13T09:08:16;21.30;88.00
38333;DHT22;25748;46.670;14.272;2023-07-13T09:11:04;21.20;88.70
38333;DHT22;25748;46.670;14.272;2023-07-13T09:13:42;21.50;90.70
38333;DHT22;25748;46.670;14.272;2023-07-13T09:16:12;21.80;90.90
38333;DHT22;25748;46.670;14.272;2023-07-13T09:18:42;21.70;88.00
38333;DHT22;25748;46.670;14.272;2023-07-13T09:21:25;21.80;88.80
38333;DHT22;25748;46.670;14.272;2023-07-13T09:24:01;21.90;90.20
38333;DHT22;25748;46.670;14.272;2023-07-13T09:26:30;22.00;88.60
38333;DHT22;25748;46.670;14.272;2023-07-13T09:29:03;21.80;89.20
38333;DHT22;25748;46.670;14.272;2023-07-13T09:34:22;21.80;90.10
38333;DHT22;25748;46.670;14.272;2023-07-13T09:36:48;21.70;88.10
38333;DHT22;25748;46.670;14.272;2023-07-13T09:44:42;22.00;90.70
38333;DHT22;25748;46.670;14.272;2023-07-13T09:47:17;21.70;88.90
38333;DHT22;25748;46.670;14.272;2023-07-13T09:49:44;21.80;90.00
38333;DHT22;25748;46.670;14.272;2023-07-13T09:52:12;21.70;88.80
38333;DHT22;25748;46.670;14.272;2023-07-13T09:54:43;22.00;90.80
38333;DHT22;25748;46.670;14.272;2023-07-13T09:57:17;21.80;87.60
38333;DHT22;25748;46.670;14.272;2023-07-13T09:59:46;21.60;85.80
38333;DHT22;25748;46.670;14.272;2023-07-13T10:02:33;21.70;88.90
38333;DHT22;25748;46.670;14.272;2023-07-13T10:05:05;21.80;90.40
38333;DHT22;25748;46.670;14.272;2023-07-13T10:07:31;21.70;86.30
38333;DHT22;25748;46.670;14.272;2023-07-13T10:10:00;21.50;86.10
38333;DHT22;25748;46.670;14.272;2023-07-13T10:12:28;21.40;85.70
38333;DHT22;25748;46.670;14.272;2023-07-13T10:14:57;21.20;85.50
38333;DHT22;25748;46.670;14.272;2023-07-13T10:17:29;21.30;87.70
38333;DHT22;25748;46.670;14.272;2023-07-13T10:20:02;21.20;87.40
38333;DHT22;25748;46.670;14.272;2023-07-13T10:23:02;21.30;87.70
38333;DHT22;25748;46.670;14.272;2023-07-13T10:25:33;21.30;88.00
38333;DHT22;25748;46.670;14.272;2023-07-13T10:28:16;21.20;86.20
38333;DHT22;25748;46.670;14.272;2023-07-13T10:30:46;21.10;84.30
38333;DHT22;25748;46.670;14.272;2023-07-13T10:33:13;21.20;86.40
38333;DHT22;25748;46.670;14.272;2023-07-13T10:35:42;21.10;85.50
38333;DHT22;25748;46.670;14.272;2023-07-13T10:38:14;21.00;85.90
38333;DHT22;25748;46.670;14.272;2023-07-13T10:41:09;20.90;85.10
38333;DHT22;25748;46.670;14.272;2023-07-13T10:43:39;21.10;87.20
38333;DHT22;25748;46.670;14.272;2023-07-13T10:46:10;21.00;87.10
38333;DHT22;25748;46.670;14.272;2023-07-13T10:48:37;20.90;85.30
38333;DHT22;25748;46.670;14.272;2023-07-13T10:51:06;21.00;86.90
38333;DHT22;25748;46.670;14.272;2023-07-13T10:53:36;21.10;88.40
38333;DHT22;25748;46.670;14.272;2023-07-13T10:56:04;21.20;88.60
38333;DHT22;25748;46.670;14.272;2023-07-13T10:58:39;21.20;89.50
38333;DHT22;25748;46.670;14.272;2023-07-13T11:03:35;21.20;89.60
38333;DHT22;25748;46.670;14.272;2023-07-13T11:06:15;21.40;90.00
38333;DHT22;25748;46.670;14.272;2023-07-13T11:13:58;21.20;88.30
38333;DHT22;25748;46.670;14.272;2023-07-13T11:21:29;21.30;88.10
38333;DHT22;25748;46.670;14.272;2023-07-13T11:24:16;21.30;88.80
38333;DHT22;25748;46.670;14.272;2023-07-13T11:26:52;21.30;88.60
38333;DHT22;25748;46.670;14.272;2023-07-13T11:31:55;21.30;88.60
38333;DHT22;25748;46.670;14.272;2023-07-13T11:34:28;21.20;88.40
38333;DHT22;25748;46.670;14.272;2023-07-13T11:36:56;21.10;88.80
38333;DHT22;25748;46.670;14.272;2023-07-13T11:42:08;21.10;89.00
38333;DHT22;25748;46.670;14.272;2023-07-13T11:44:35;21.00;87.80
38333;DHT22;25748;46.670;14.272;2023-07-13T11:47:09;21.00;88.70
38333;DHT22;25748;46.670;14.272;2023-07-13T11:49:43;21.00;88.30
38333;DHT22;25748;46.670;14.272;2023-07-13T11:52:16;21.00;88.50
38333;DHT22;25748;46.670;14.272;2023-07-13T11:54:53;21.00;89.10
38333;DHT22;25748;46.670;14.272;2023-07-13T11:57:28;21.00;88.20
38333;DHT22;25748;46.670;14.272;2023-07-13T11:59:55;20.80;88.20
38333;DHT22;25748;46.670;14.272;2023-07-13T12:02:36;20.70;89.40
38333;DHT22;25748;46.670;14.272;2023-07-13T12:05:04;20.60;90.10
38333;DHT22;25748;46.670;14.272;2023-07-13T12:07:32;20.60;90.10
38333;DHT22;25748;46.670;14.272;2023-07-13T12:10:22;20.50;90.10
38333;DHT22;25748;46.670;14.272;2023-07-13T12:12:55;20.60;90.50
38333;DHT22;25748;46.670;14.272;2023-07-13T12:15:23;20.60;90.20
38333;DHT22;25748;46.670;14.272;2023-07-13T12:17:49;20.60;90.30
38333;DHT22;25748;46.670;14.272;2023-07-13T12:20:23;20.40;90.20
38333;DHT22;25748;46.670;14.272;2023-07-13T12:22:50;20.50;90.50
38333;DHT22;25748;46.670;14.272;2023-07-13T12:25:19;20.50;90.70
38333;DHT22;25748;46.670;14.272;2023-07-13T12:27:48;20.50;91.00
38333;DHT22;25748;46.670;14.272;2023-07-13T12:30:30;20.70;91.30
38333;DHT22;25748;46.670;14.272;2023-07-13T12:33:00;20.80;91.60
38333;DHT22;25748;46.670;14.272;2023-07-13T12:35:28;20.70;90.50
38333;DHT22;25748;46.670;14.272;2023-07-13T12:37:57;20.90;90.70
38333;DHT22;25748;46.670;14.272;2023-07-13T12:40:32;21.00;89.20
38333;DHT22;25748;46.670;14.272;2023-07-13T12:43:03;21.10;89.40
38333;DHT22;25748;46.670;14.272;2023-07-13T12:45:30;21.20;88.90
38333;DHT22;25748;46.670;14.272;2023-07-13T12:48:04;21.40;89.50
38333;DHT22;25748;46.670;14.272;2023-07-13T12:50:37;21.40;88.50
38333;DHT22;25748;46.670;14.272;2023-07-13T12:53:14;21.50;87.30
38333;DHT22;25748;46.670;14.272;2023-07-13T12:55:53;21.60;86.00
38333;DHT22;25748;46.670;14.272;2023-07-13T12:58:26;21.70;87.00
38333;DHT22;25748;46.670;14.272;2023-07-13T13:00:55;21.70;86.10
38333;DHT22;25748;46.670;14.272;2023-07-13T13:03:45;21.80;86.90
38333;DHT22;25748;46.670;14.272;2023-07-13T13:08:46;22.00;84.80
38333;DHT22;25748;46.670;14.272;2023-07-13T13:11:14;22.00;84.20
38333;DHT22;25748;46.670;14.272;2023-07-13T13:13:44;22.10;84.30
38333;DHT22;25748;46.670;14.272;2023-07-13T13:16:33;22.20;84.90
38333;DHT22;25748;46.670;14.272;2023-07-13T13:19:13;22.20;84.50
38333;DHT22;25748;46.670;14.272;2023-07-13T13:21:39;22.30;84.70
38333;DHT22;25748;46.670;14.272;2023-07-13T13:24:12;22.40;84.50
38333;DHT22;25748;46.670;14.272;2023-07-13T13:26:38;22.50;84.70
38333;DHT22;25748;46.670;14.272;2023-07-13T13:29:18;22.50;83.90
38333;DHT22;25748;46.670;14.272;2023-07-13T13:31:44;22.70;83.70
38333;DHT22;25748;46.670;14.272;2023-07-13T13:34:14;22.90;83.10
38333;DHT22;25748;46.670;14.272;2023-07-13T13:36:41;23.00;82.40
38333;DHT22;25748;46.670;14.272;2023-07-13T13:39:33;22.90;77.10
38333;DHT22;25748;46.670;14.272;2023-07-13T13:41:59;23.00;79.70
38333;DHT22;25748;46.670;14.272;2023-07-13T13:44:25;23.00;78.90
38333;DHT22;25748;46.670;14.272;2023-07-13T13:46:52;23.20;78.80
38333;DHT22;25748;46.670;14.272;2023-07-13T13:49:22;23.20;76.60
38333;DHT22;25748;46.670;14.272;2023-07-13T13:51:48;23.30;74.00
38333;DHT22;25748;46.670;14.272;2023-07-13T13:54:16;23.50;75.60
38333;DHT22;25748;46.670;14.272;2023-07-13T13:56:43;23.60;78.90
38333;DHT22;25748;46.670;14.272;2023-07-13T13:59:09;23.80;77.90
38333;DHT22;25748;46.670;14.272;2023-07-13T14:01:35;23.90;76.50
38333;DHT22;25748;46.670;14.272;2023-07-13T14:04:02;24.00;75.00
38333;DHT22;25748;46.670;14.272;2023-07-13T14:06:27;24.10;74.00
38333;DHT22;25748;46.670;14.272;2023-07-13T14:08:53;24.10;74.20
38333;DHT22;25748;46.670;14.272;2023-07-13T14:11:21;24.00;74.30
38333;DHT22;25748;46.670;14.272;2023-07-13T14:16:44;23.90;73.10
38333;DHT22;25748;46.670;14.272;2023-07-13T14:19:13;24.00;72.40
38333;DHT22;25748;46.670;14.272;2023-07-13T14:21:40;24.00;71.70
38333;DHT22;25748;46.670;14.272;2023-07-13T14:24:06;24.00;72.90
38333;DHT22;25748;46.670;14.272;2023-07-13T14:26:39;23.80;71.50
38333;DHT22;25748;46.670;14.272;2023-07-13T14:29:12;23.80;72.50
38333;DHT22;25748;46.670;14.272;2023-07-13T14:31:40;23.80;72.30
38333;DHT22;25748;46.670;14.272;2023-07-13T14:34:07;23.80;71.80
38333;DHT22;25748;46.670;14.272;2023-07-13T14:36:38;23.80;72.70
38333;DHT22;25748;46.670;14.272;2023-07-13T14:39:17;23.70;74.80
38333;DHT22;25748;46.670;14.272;2023-07-13T14:41:44;23.70;75.00
38333;DHT22;25748;46.670;14.272;2023-07-13T14:44:14;23.60;75.10
38333;DHT22;25748;46.670;14.272;2023-07-13T14:46:41;23.60;74.10
38333;DHT22;25748;46.670;14.272;2023-07-13T14:51:52;23.40;74.60
38333;DHT22;25748;46.670;14.272;2023-07-13T14:54:18;23.30;73.10
38333;DHT22;25748;46.670;14.272;2023-07-13T14:56:43;23.00;73.00
38333;DHT22;25748;46.670;14.272;2023-07-13T14:59:09;22.90;74.30
38333;DHT22;25748;46.670;14.272;2023-07-13T15:01:36;22.70;75.00
38333;DHT22;25748;46.670;14.272;2023-07-13T15:04:02;22.70;76.20
38333;DHT22;25748;46.670;14.272;2023-07-13T15:06:29;22.70;75.50
38333;DHT22;25748;46.670;14.272;2023-07-13T15:08:57;22.50;75.00
38333;DHT22;25748;46.670;14.272;2023-07-13T15:11:23;22.40;73.50
38333;DHT22;25748;46.670;14.272;2023-07-13T15:13:48;22.30;72.40
38333;DHT22;25748;46.670;14.272;2023-07-13T15:16:21;22.20;71.40
38333;DHT22;25748;46.670;14.272;2023-07-13T15:18:47;22.00;67.10
38333;DHT22;25748;46.670;14.272;2023-07-13T15:21:19;21.80;67.20
38333;DHT22;25748;46.670;14.272;2023-07-13T15:23:46;21.70;66.90
38333;DHT22;25748;46.670;14.272;2023-07-13T15:26:19;21.60;66.10
38333;DHT22;25748;46.670;14.272;2023-07-13T15:28:45;21.50;65.80
38333;DHT22;25748;46.670;14.272;2023-07-13T15:31:23;21.50;65.00
38333;DHT22;25748;46.670;14.272;2023-07-13T15:33:53;21.50;64.40
38333;DHT22;25748;46.670;14.272;2023-07-13T15:36:21;21.50;63.80
38333;DHT22;25748;46.670;14.272;2023-07-13T15:38:48;21.40;64.00
38333;DHT22;25748;46.670;14.272;2023-07-13T15:41:18;21.40;63.00
38333;DHT22;25748;46.670;14.272;2023-07-13T15:43:46;21.40;63.50
38333;DHT22;25748;46.670;14.272;2023-07-13T15:46:11;21.30;65.20
38333;DHT22;25748;46.670;14.272;2023-07-13T15:48:37;21.20;66.80
38333;DHT22;25748;46.670;14.272;2023-07-13T15:51:05;21.10;65.70
38333;DHT22;25748;46.670;14.272;2023-07-13T15:53:35;21.10;68.40
38333;DHT22;25748;46.670;14.272;2023-07-13T15:56:19;20.90;70.50
38333;DHT22;25748;46.670;14.272;2023-07-13T15:58:46;20.70;72.30